Time;durP1;ratioP1;P1;durP2;ratioP2;P2;SDS_P1;SDS_P2;PMS_P1;PMS_P2;Temp;Humidity;BMP_temperature;BMP_pressure;BME280_temperature;BME280_humidity;BME280_pressure;Samples;Min_cycle;Max_cycle;Signal;HPM_P1;HPM_P2
2023/04/20 00:00:14;;;;;;;;;;;;;;;7.16;44.06;102293.53;5090513;28;20460;-35
2023/04/20 00:02:40;;;;;;;6.00;1.55;;;;;;;7.11;44.19;102285.97;5090007;28;19912;-35
2023/04/20 00:05:06;;;;;;;3.20;1.90;;;;;;;7.10;44.36;102272.69;5089731;28;20039;-35
2023/04/20 00:07:32;;;;;;;3.78;1.60;;;;;;;7.14;44.65;102276.72;5089627;28;20017;-35
2023/04/20 00:09:58;;;;;;;4.63;1.90;;;;;;;7.08;44.68;102290.88;5090500;28;20039;-35
2023/04/20 00:12:23;;;;;;;3.63;1.75;;;;;;;7.02;44.21;102278.94;5081378;28;20082;-35
2023/04/20 00:14:49;;;;;;;2.53;1.60;;;;;;;6.99;44.70;102267.69;5076627;28;20476;-35
2023/04/20 00:17:14;;;;;;;4.70;1.90;;;;;;;7.06;44.45;102263.28;5076792;28;20031;-35
2023/04/20 00:19:39;;;;;;;5.33;2.03;;;;;;;7.03;44.59;102277.09;5076223;28;20333;-35
2023/04/20 00:22:05;;;;;;;2.40;1.60;;;;;;;6.96;44.35;102250.06;5076192;28;20028;-35
2023/04/20 00:24:30;;;;;;;2.93;2.07;;;;;;;6.87;44.57;102232.25;5076266;28;20555;-35
2023/04/20 00:26:55;;;;;;;4.40;1.87;;;;;;;6.96;44.14;102247.34;5076704;28;20056;-34
2023/04/20 00:29:21;;;;;;;2.73;1.63;;;;;;;6.96;44.55;102242.81;5075822;28;20103;-35
2023/04/20 00:31:46;;;;;;;2.10;1.33;;;;;;;7.00;44.03;102239.78;5076641;28;20033;-35
2023/04/20 00:34:12;;;;;;;3.00;1.80;;;;;;;6.96;44.59;102239.28;5076256;28;20022;-35
2023/04/20 00:36:37;;;;;;;4.37;1.33;;;;;;;6.86;44.70;102233.28;5076162;28;20036;-35
2023/04/20 00:39:04;;;;;;;2.87;1.47;;;;;;;6.93;44.67;102235.13;5076226;28;20029;-35
2023/04/20 00:41:29;;;;;;;4.22;1.73;;;;;;;6.90;45.08;102235.44;5075755;28;20119;-35
2023/04/20 00:43:55;;;;;;;4.23;1.60;;;;;;;6.83;45.07;102234.47;5076125;28;20096;-35
2023/04/20 00:46:20;;;;;;;3.47;1.63;;;;;;;6.84;45.06;102228.06;5076627;28;20262;-35
2023/04/20 00:48:46;;;;;;;3.60;1.93;;;;;;;6.74;45.09;102219.38;5075417;28;20031;-35
2023/04/20 00:51:12;;;;;;;3.88;1.48;;;;;;;6.76;45.40;102222.72;5076050;28;20456;-35
2023/04/20 00:53:38;;;;;;;3.75;1.55;;;;;;;6.76;45.56;102228.09;5075271;28;20044;-35
2023/04/20 00:56:05;;;;;;;2.58;1.40;;;;;;;6.71;45.94;102220.53;5076130;28;20024;-34
2023/04/20 00:58:30;;;;;;;2.28;1.45;;;;;;;6.71;45.49;102215.16;5075731;28;20028;-35
2023/04/20 01:00:56;;;;;;;3.80;1.80;;;;;;;6.68;46.56;102210.13;5075789;28;20187;-35
2023/04/20 01:03:22;;;;;;;4.32;1.60;;;;;;;6.63;45.79;102206.28;5075335;28;20270;-35
2023/04/20 01:05:47;;;;;;;2.25;1.50;;;;;;;6.55;47.40;102199.09;5075104;28;20036;-35
2023/04/20 01:08:12;;;;;;;4.15;1.60;;;;;;;6.52;47.36;102194.03;5075354;28;20031;-35
2023/04/20 01:10:38;;;;;;;3.80;1.50;;;;;;;6.55;48.40;102185.66;5075296;28;20037;-35
2023/04/20 01:13:03;;;;;;;3.87;1.50;;;;;;;6.53;47.86;102179.59;5075775;28;20025;-35
2023/04/20 01:15:29;;;;;;;2.90;1.40;;;;;;;6.47;47.45;102177.59;5076051;28;20020;-34
2023/04/20 01:17:56;;;;;;;4.28;1.48;;;;;;;6.40;48.14;102174.75;5075637;28;20035;-35
2023/04/20 01:20:22;;;;;;;3.08;1.30;;;;;;;6.39;48.73;102172.22;5074722;28;20465;-35
2023/04/20 01:22:49;;;;;;;;;;;;;;;6.51;47.90;102170.03;5074885;28;20086;-34
2023/04/20 01:25:15;;;;;;;2.05;1.48;;;;;;;6.39;48.85;102165.03;5074899;28;20295;-35
2023/04/20 01:27:40;;;;;;;;;;;;;;;6.47;48.65;102157.94;5075409;28;20036;-35
2023/04/20 01:30:06;;;;;;;5.60;1.52;;;;;;;6.36;49.83;102148.41;5075165;28;19908;-35
2023/04/20 01:32:32;;;;;;;5.68;1.88;;;;;;;6.39;49.32;102148.03;5074511;28;20036;-35
2023/04/20 01:34:57;;;;;;;7.93;2.00;;;;;;;6.43;50.18;102141.31;5074536;28;20465;-34
2023/04/20 01:37:22;;;;;;;6.47;1.77;;;;;;;6.44;49.79;102133.09;5074766;28;20047;-35
2023/04/20 01:39:48;;;;;;;4.30;1.60;;;;;;;6.42;49.55;102136.97;5074637;28;20032;-35
2023/04/20 01:42:13;;;;;;;3.87;1.83;;;;;;;6.41;49.70;102136.13;5074940;28;20421;-35
2023/04/20 01:44:39;;;;;;;4.07;1.50;;;;;;;6.36;49.86;102129.59;5074961;28;20028;-35
2023/04/20 01:47:04;;;;;;;4.40;1.47;;;;;;;6.32;51.07;102131.78;5074851;28;20028;-35
2023/04/20 01:49:29;;;;;;;4.03;1.47;;;;;;;6.33;50.37;102124.56;5075012;28;20376;-35
2023/04/20 01:51:55;;;;;;;4.03;1.77;;;;;;;6.22;50.72;102117.69;5074434;28;20272;-35
2023/04/20 01:54:21;;;;;;;4.05;1.58;;;;;;;6.28;50.82;102121.56;5074347;28;20043;-35
2023/04/20 01:56:47;;;;;;;2.28;1.55;;;;;;;6.22;51.11;102111.50;5074409;28;20025;-34
2023/04/20 01:59:12;;;;;;;2.65;1.48;;;;;;;6.21;52.14;102110.66;5075098;28;20073;-34
2023/04/20 02:01:37;;;;;;;3.20;1.47;;;;;;;6.26;51.37;102112.84;5075024;28;20357;-35
2023/04/20 02:04:03;;;;;;;4.87;1.77;;;;;;;6.13;51.70;102103.44;5074242;28;20178;-34
2023/04/20 02:06:28;;;;;;;2.20;1.23;;;;;;;6.22;52.22;102104.28;5073901;28;20094;-35
2023/04/20 02:08:53;;;;;;;3.30;1.47;;;;;;;6.07;52.40;102106.00;5074369;28;20035;-34
2023/04/20 02:11:20;;;;;;;2.97;1.67;;;;;;;6.13;52.75;102102.59;5073898;28;20389;-34
2023/04/20 02:13:46;;;;;;;3.50;1.60;;;;;;;6.03;53.32;102096.59;5074031;28;20075;-34
2023/04/20 02:16:11;;;;;;;2.27;1.50;;;;;;;6.00;53.68;102105.81;5074301;28;20447;-35
2023/04/20 02:18:36;;;;;;;3.33;1.50;;;;;;;5.92;54.28;102097.78;5073969;28;20416;-35
2023/04/20 02:21:02;;;;;;;3.50;1.50;;;;;;;5.90;54.03;102099.75;5074250;28;20278;-34
2023/04/20 02:23:27;;;;;;;2.20;1.63;;;;;;;5.84;54.74;102092.38;5073875;28;20035;-34
2023/04/20 02:25:53;;;;;;;4.07;1.30;;;;;;;5.78;55.11;102082.34;5074143;28;20258;-34
2023/04/20 02:28:19;;;;;;;1.98;1.40;;;;;;;5.83;54.46;102090.72;5074074;28;20095;-34
2023/04/20 02:30:44;;;;;;;3.80;1.55;;;;;;;5.90;55.08;102091.69;5074102;28;20396;-35
2023/04/20 02:33:10;;;;;;;4.93;1.90;;;;;;;5.94;55.15;102095.75;5073774;28;20075;-34
2023/04/20 02:35:35;;;;;;;2.97;1.40;;;;;;;5.77;55.54;102091.41;5073372;28;20020;-34
2023/04/20 02:38:01;;;;;;;4.60;1.70;;;;;;;5.71;56.15;102081.31;5073790;28;20028;-34
2023/04/20 02:40:26;;;;;;;2.70;1.58;;;;;;;5.63;56.92;102076.81;5073969;28;20474;-35
2023/04/20 02:42:52;;;;;;;2.47;1.50;;;;;;;5.59;56.28;102078.16;5073700;28;20508;-35
2023/04/20 02:45:17;;;;;;;5.43;2.33;;;;;;;5.57;56.96;102074.81;5074266;28;20251;-34
2023/04/20 02:47:43;;;;;;;2.00;1.50;;;;;;;5.69;57.60;102070.75;5073600;28;20453;-34
2023/04/20 02:50:09;;;;;;;3.35;1.45;;;;;;;5.47;57.79;102047.31;5073907;28;20025;-35
2023/04/20 02:52:34;;;;;;;3.78;1.50;;;;;;;5.60;58.55;102064.56;5073537;28;20028;-35
2023/04/20 02:54:59;;;;;;;3.93;1.87;;;;;;;5.65;58.51;102061.34;5073889;28;20029;-35
2023/04/20 02:57:25;;;;;;;2.77;1.50;;;;;;;5.52;59.13;102053.84;5073212;28;20392;-36
2023/04/20 02:59:50;;;;;;;2.78;1.67;;;;;;;5.57;59.40;102053.34;5074040;28;20112;-34
2023/04/20 03:02:16;;;;;;;2.30;1.63;;;;;;;5.46;58.97;102046.44;5073992;28;20077;-35
2023/04/20 03:04:41;;;;;;;6.33;1.60;;;;;;;5.54;59.95;102061.72;5074028;28;20666;-35
2023/04/20 03:07:08;;;;;;;2.13;1.60;;;;;;;5.54;60.37;102061.72;5073430;28;20029;-35
2023/04/20 03:09:34;;;;;;;3.13;1.88;;;;;;;5.54;60.75;102045.63;5073946;28;20544;-35
2023/04/20 03:12:01;;;;;;;3.22;1.70;;;;;;;5.60;61.27;102048.44;5073350;28;20032;-35
2023/04/20 03:14:26;;;;;;;2.85;1.73;;;;;;;5.59;61.36;102038.72;5073371;28;20027;-35
2023/04/20 03:16:51;;;;;;;2.70;1.70;;;;;;;5.68;61.37;102051.13;5073661;28;20029;-35
2023/04/20 03:19:17;;;;;;;3.37;1.80;;;;;;;5.70;61.44;102037.53;5073312;28;20461;-35
2023/04/20 03:21:43;;;;;;;2.27;1.80;;;;;;;5.76;61.91;102031.50;5072949;28;20032;-35
2023/04/20 03:24:09;;;;;;;2.47;1.55;;;;;;;5.74;62.39;102041.56;5073278;28;20035;-35
2023/04/20 03:26:35;;;;;;;2.87;1.87;;;;;;;5.70;62.96;102029.47;5073618;28;20021;-35
2023/04/20 03:29:00;;;;;;;2.70;1.85;;;;;;;5.68;64.36;102042.25;5073196;28;20103;-35
2023/04/20 03:31:26;;;;;;;4.07;1.83;;;;;;;5.69;63.51;102038.56;5073200;28;20067;-36
2023/04/20 03:33:51;;;;;;;2.73;1.77;;;;;;;5.69;64.57;102031.34;5073126;28;20031;-35
2023/04/20 03:36:17;;;;;;;2.97;1.73;;;;;;;5.80;64.39;102014.03;5073466;28;20352;-35
2023/04/20 03:38:42;;;;;;;3.40;1.80;;;;;;;5.87;65.08;102011.53;5073180;28;20029;-35
2023/04/20 03:41:08;;;;;;;4.57;2.03;;;;;;;5.97;64.68;102020.25;5073816;28;20055;-35
2023/04/20 03:43:33;;;;;;;3.80;1.77;;;;;;;6.06;64.46;102010.31;5073352;28;20020;-36
2023/04/20 03:45:59;;;;;;;4.38;2.08;;;;;;;6.02;65.49;102003.63;5073333;28;20029;-35
2023/04/20 03:48:24;;;;;;;3.43;1.97;;;;;;;6.02;64.74;102007.16;5076129;28;20540;-35
2023/04/20 03:50:50;;;;;;;3.00;1.80;;;;;;;6.05;65.48;102006.81;5077668;28;20476;-35
2023/04/20 03:53:15;;;;;;;2.90;1.73;;;;;;;6.13;65.67;102008.63;5076741;28;20297;-35
2023/04/20 03:55:41;;;;;;;4.50;2.00;;;;;;;6.11;66.05;101999.91;5077569;28;20035;-36
2023/04/20 03:58:06;;;;;;;3.73;2.03;;;;;;;6.15;67.92;101996.69;5076612;28;20056;-35
2023/04/20 04:00:32;;;;;;;2.67;1.77;;;;;;;6.04;65.84;101980.09;5077078;28;20025;-36
2023/04/20 04:02:57;;;;;;;4.20;2.00;;;;;;;6.09;66.83;101988.47;5076903;28;20633;-36
2023/04/20 04:05:24;;;;;;;7.60;2.63;;;;;;;6.16;67.90;102002.91;5076837;28;20373;-35
2023/04/20 04:07:49;;;;;;;4.40;2.20;;;;;;;6.14;67.38;101996.84;5075479;28;20178;-35
2023/04/20 04:10:17;;;;;;;2.57;1.80;;;;;;;6.20;67.78;101996.19;5076768;28;20115;-36
2023/04/20 04:12:43;;;;;;;3.67;1.90;;;;;;;6.16;67.36;101989.47;5076315;28;20028;-35
2023/04/20 04:15:09;;;;;;;3.08;1.70;;;;;;;6.14;67.81;101996.84;5076659;28;20027;-35
2023/04/20 04:17:34;;;;;;;5.40;2.53;;;;;;;6.13;68.46;101995.19;5076549;28;20108;-35
2023/04/20 04:20:00;;;;;;;3.67;2.03;;;;;;;6.18;68.06;101995.50;5076462;28;20099;-34
2023/04/20 04:22:25;;;;;;;5.93;2.03;;;;;;;6.20;68.78;101985.44;5075947;28;20025;-35
2023/04/20 04:24:53;;;;;;;3.87;2.10;;;;;;;6.21;68.43;101976.34;5076205;28;20528;-35
2023/04/20 04:27:19;;;;;;;4.32;1.98;;;;;;;6.25;69.07;101971.47;5074831;28;20490;-35
2023/04/20 04:29:45;;;;;;;3.60;1.95;;;;;;;6.27;68.46;101964.91;5076079;28;20086;-35
2023/04/20 04:32:11;;;;;;;3.37;1.90;;;;;;;6.31;68.29;101960.88;5076576;28;20029;-35
2023/04/20 04:34:36;;;;;;;;;;;;;;;6.45;67.44;101962.81;5076698;28;20039;-35
2023/04/20 04:37:02;;;;;;;3.70;2.05;;;;;;;6.40;69.17;101959.81;5076219;28;20326;-35
2023/04/20 04:39:27;;;;;;;3.50;1.80;;;;;;;6.41;69.41;101955.28;5074694;28;20114;-35
2023/04/20 04:41:53;;;;;;;4.87;2.13;;;;;;;6.36;69.23;101945.06;5075611;28;20500;-35
2023/04/20 04:44:18;;;;;;;2.90;2.27;;;;;;;6.41;69.93;101945.34;5076073;28;20085;-35
2023/04/20 04:46:44;;;;;;;3.47;2.30;;;;;;;6.44;69.24;101953.06;5075875;28;20247;-35
2023/04/20 04:49:10;;;;;;;4.53;2.00;;;;;;;6.44;70.10;101933.41;5075418;28;20104;-35
2023/04/20 04:51:36;;;;;;;3.30;2.28;;;;;;;6.52;70.27;101940.59;5076517;28;20025;-35
2023/04/20 04:54:01;;;;;;;3.00;1.90;;;;;;;6.53;70.75;101939.56;5075587;28;20025;-35
2023/04/20 04:56:27;;;;;;;2.57;2.03;;;;;;;6.54;70.10;101931.34;5076414;28;20031;-35
2023/04/20 04:58:53;;;;;;;4.30;2.65;;;;;;;6.64;69.89;101940.03;5075202;28;20465;-35
2023/04/20 05:01:18;;;;;;;3.67;2.10;;;;;;;6.59;69.74;101930.81;5075842;28;20411;-35
2023/04/20 05:03:43;;;;;;;4.10;2.00;;;;;;;6.68;69.97;101943.16;5074807;28;20032;-35
2023/04/20 05:06:09;;;;;;;3.70;2.30;;;;;;;6.67;69.97;101934.25;5076027;28;20035;-35
2023/04/20 05:08:34;;;;;;;4.65;2.38;;;;;;;6.71;69.47;101945.50;5075325;28;20050;-35
2023/04/20 05:11:00;;;;;;;3.10;2.33;;;;;;;6.72;70.11;101931.03;5075332;28;20035;-35
2023/04/20 05:13:25;;;;;;;3.97;2.63;;;;;;;6.73;70.36;101943.47;5075033;28;20031;-35
2023/04/20 05:15:50;;;;;;;3.60;2.00;;;;;;;6.76;72.32;101937.75;5076044;28;20449;-35
2023/04/20 05:18:16;;;;;;;3.37;2.03;;;;;;;6.78;71.56;101935.69;5074878;28;20275;-35
2023/04/20 05:20:41;;;;;;;3.43;2.30;;;;;;;6.77;72.41;101939.41;5075106;28;20021;-35
2023/04/20 05:23:07;;;;;;;6.60;2.50;;;;;;;6.74;72.46;101923.66;5075047;28;20298;-35
2023/04/20 05:25:32;;;;;;;3.10;2.30;;;;;;;6.75;72.08;101932.56;5074768;28;20052;-35
2023/04/20 05:27:58;;;;;;;5.68;2.55;;;;;;;6.70;71.70;101939.28;5075257;28;20066;-35
2023/04/20 05:30:23;;;;;;;3.23;2.30;;;;;;;6.64;72.04;101923.06;5075474;28;20024;-35
2023/04/20 05:32:49;;;;;;;2.95;2.10;;;;;;;6.74;72.58;101929.03;5074528;28;20071;-35
2023/04/20 05:35:14;;;;;;;3.00;2.10;;;;;;;6.77;72.84;101927.81;5075361;28;20029;-34
2023/04/20 05:37:40;;;;;;;2.83;1.98;;;;;;;6.75;72.43;101928.00;5074733;28;20476;-35
2023/04/20 05:40:06;;;;;;;4.57;2.38;;;;;;;6.76;72.03;101927.00;5074970;28;20028;-35
2023/04/20 05:42:32;;;;;;;;;;;;;;;6.82;71.91;101918.19;5074692;28;20115;-34
2023/04/20 05:44:57;;;;;;;5.57;2.60;;;;;;;6.84;71.89;101924.25;5075456;28;19970;-34
2023/04/20 05:47:22;;;;;;;2.40;2.20;;;;;;;6.81;71.65;101905.78;5074328;28;20305;-35
2023/04/20 05:49:47;;;;;;;5.27;2.67;;;;;;;6.87;71.73;101915.81;5107272;28;20051;-35
2023/04/20 05:52:13;;;;;;;6.57;2.83;;;;;;;6.88;72.05;101909.44;5074530;28;20051;-35
2023/04/20 05:54:38;;;;;;;3.67;2.17;;;;;;;6.92;71.44;101913.41;5074444;28;20377;-35
2023/04/20 05:57:04;;;;;;;5.63;2.13;;;;;;;6.96;71.44;101916.56;5074962;28;20025;-35
2023/04/20 05:59:30;;;;;;;3.30;2.42;;;;;;;6.95;71.26;101918.44;5074320;28;20029;-35
2023/04/20 06:01:55;;;;;;;3.95;2.42;;;;;;;6.95;71.31;101915.75;5074210;28;20052;-35
2023/04/20 06:04:21;;;;;;;3.23;2.13;;;;;;;7.02;71.14;101915.84;5074565;28;20032;-35
2023/04/20 06:06:46;;;;;;;3.35;2.45;;;;;;;6.97;71.66;101900.25;5074216;28;20028;-35
2023/04/20 06:09:12;;;;;;;6.17;2.50;;;;;;;7.03;71.37;101911.28;5073982;28;20016;-35
2023/04/20 06:11:37;;;;;;;3.00;2.10;;;;;;;7.01;72.19;101892.66;5074587;28;20071;-35
2023/04/20 06:14:02;;;;;;;3.97;2.20;;;;;;;7.12;72.18;101902.13;5074359;28;20443;-35
2023/04/20 06:16:28;;;;;;;6.77;2.60;;;;;;;7.27;71.53;101904.84;5073747;28;20025;-35
2023/04/20 06:18:54;;;;;;;4.13;2.83;;;;;;;7.33;71.93;101909.53;5074011;28;20025;-35
2023/04/20 06:21:20;;;;;;;4.13;2.50;;;;;;;7.46;71.64;101918.63;5074435;28;20029;-35
2023/04/20 06:23:45;;;;;;;4.55;2.88;;;;;;;7.47;70.88;101911.41;5074177;28;20429;-35
2023/04/20 06:26:10;;;;;;;4.27;2.60;;;;;;;7.44;70.74;101898.31;5074465;28;20028;-35
2023/04/20 06:28:36;;;;;;;6.47;3.30;;;;;;;7.51;71.52;101912.69;5074411;28;20059;-35
2023/04/20 06:31:02;;;;;;;4.20;2.92;;;;;;;7.51;71.11;101914.53;5074473;28;20024;-35
2023/04/20 06:33:28;;;;;;;4.70;2.97;;;;;;;7.58;70.49;101915.50;5073797;28;20433;-35
2023/04/20 06:35:55;;;;;;;4.30;2.67;;;;;;;7.56;71.47;101912.13;5073896;28;20040;-36
2023/04/20 06:38:21;;;;;;;3.13;2.10;;;;;;;7.59;71.11;101901.00;5073685;28;20056;-35
2023/04/20 06:40:47;;;;;;;4.15;2.60;;;;;;;7.63;70.86;101902.31;5073732;28;20032;-35
2023/04/20 06:43:12;;;;;;;5.60;2.85;;;;;;;7.67;70.65;101892.84;5073389;28;20112;-35
2023/04/20 06:45:39;;;;;;;7.33;2.83;;;;;;;7.74;71.74;101889.19;5073769;28;20029;-35
2023/04/20 06:48:05;;;;;;;6.40;2.92;;;;;;;7.80;71.17;101893.00;5073341;28;20082;-35
2023/04/20 06:50:30;;;;;;;3.75;2.40;;;;;;;7.70;70.04;101884.38;5073951;28;20112;-35
2023/04/20 06:52:55;;;;;;;5.67;3.10;;;;;;;7.77;69.94;101898.78;5072662;28;20417;-35
2023/04/20 06:55:21;;;;;;;6.73;2.53;;;;;;;7.82;70.11;101890.13;5073331;28;20067;-35
2023/04/20 06:57:46;;;;;;;6.27;2.80;;;;;;;7.84;70.13;101891.59;5073562;28;20025;-35
2023/04/20 07:00:12;;;;;;;3.57;2.33;;;;;;;7.85;70.87;101887.88;5073706;28;20064;-35
2023/04/20 07:02:48;;;;;;;3.50;2.15;;;;;;;7.92;71.46;101880.75;5073855;28;20056;-35
2023/04/20 07:05:15;;;;;;;3.83;2.40;;;;;;;7.96;71.32;101884.72;5073792;28;20107;-35
2023/04/20 07:07:41;;;;;;;4.93;2.55;;;;;;;7.94;71.50;101885.94;5073385;28;20107;-35
2023/04/20 07:10:08;;;;;;;6.57;2.58;;;;;;;7.86;70.18;101876.13;5073413;28;20464;-35
2023/04/20 07:12:35;;;;;;;4.32;2.65;;;;;;;7.89;70.54;101893.75;5073411;28;20021;-36
2023/04/20 07:15:02;;;;;;;5.38;2.63;;;;;;;7.88;70.36;101895.59;5073658;28;20455;-35
2023/04/20 07:17:28;;;;;;;4.65;2.50;;;;;;;7.80;71.26;101893.00;5072994;28;20064;-35
2023/04/20 07:19:55;;;;;;;4.03;2.65;;;;;;;7.71;70.29;101884.22;5073288;28;20120;-35
2023/04/20 07:22:20;;;;;;;4.30;2.70;;;;;;;7.69;71.19;101890.78;5075136;28;20028;-36
2023/04/20 07:24:45;;;;;;;7.20;2.63;;;;;;;7.54;71.40;101882.72;5077876;28;20024;-35
2023/04/20 07:27:11;;;;;;;4.17;2.67;;;;;;;7.62;72.16;101898.78;5077316;28;20028;-36
2023/04/20 07:29:36;;;;;;;5.07;2.93;;;;;;;7.59;71.97;101896.44;5077814;28;20214;-36
2023/04/20 07:32:01;;;;;;;4.57;3.13;;;;;;;7.56;72.15;101901.34;5077512;28;20033;-36
2023/04/20 07:34:27;;;;;;;6.23;2.50;;;;;;;7.49;72.59;101907.50;5077786;28;20028;-35
2023/04/20 07:36:52;;;;;;;10.20;2.50;;;;;;;7.47;72.72;101901.47;5076877;28;20059;-35
2023/04/20 07:39:18;;;;;;;11.57;2.80;;;;;;;7.44;72.19;101896.44;5076701;28;20115;-35
2023/04/20 07:41:43;;;;;;;22.90;3.57;;;;;;;7.43;72.89;101886.72;5076641;28;20066;-35
2023/04/20 07:44:08;;;;;;;7.83;2.73;;;;;;;7.52;72.75;101879.38;5076976;28;20328;-35
2023/04/20 07:46:34;;;;;;;2.63;2.33;;;;;;;7.57;72.16;101870.75;5077270;28;20028;-35
2023/04/20 07:48:59;;;;;;;19.80;3.10;;;;;;;7.83;72.73;101884.56;5075719;28;20031;-36
2023/04/20 07:51:25;;;;;;;4.63;2.53;;;;;;;7.92;71.94;101880.75;5077089;28;20266;-35
2023/04/20 07:53:51;;;;;;;;;;;;;;;8.00;70.65;101886.03;5077127;28;20025;-35
2023/04/20 07:56:16;;;;;;;8.20;2.88;;;;;;;8.02;71.86;101877.75;5076746;28;20249;-35
2023/04/20 07:58:41;;;;;;;3.23;2.40;;;;;;;8.03;71.67;101892.88;5076894;28;20063;-35
2023/04/20 08:01:07;;;;;;;3.03;2.20;;;;;;;8.08;71.09;101890.47;5076606;28;20472;-36
2023/04/20 08:03:32;;;;;;;3.63;2.43;;;;;;;7.95;70.88;101887.59;5077425;28;20032;-35
2023/04/20 08:05:58;;;;;;;6.27;2.20;;;;;;;8.03;71.01;101886.66;5076547;28;20770;-35
2023/04/20 08:08:23;;;;;;;6.07;2.70;;;;;;;8.05;71.24;101879.22;5076703;28;20263;-36
2023/04/20 08:10:49;;;;;;;3.43;2.20;;;;;;;8.10;71.11;101868.72;5076806;28;20036;-36
2023/04/20 08:13:14;;;;;;;3.23;2.17;;;;;;;8.13;71.35;101871.88;5076419;28;20281;-36
2023/04/20 08:15:39;;;;;;;4.53;2.15;;;;;;;8.06;71.68;101870.13;5077014;28;20025;-36
2023/04/20 08:18:05;;;;;;;5.07;1.93;;;;;;;8.13;71.62;101873.72;5076909;28;20028;-35
2023/04/20 08:20:30;;;;;;;4.10;2.53;;;;;;;8.13;71.37;101881.81;5075964;28;20024;-35
2023/04/20 08:22:55;;;;;;;4.00;2.27;;;;;;;8.12;71.17;101878.28;5077085;28;20083;-35
2023/04/20 08:25:21;;;;;;;3.20;2.13;;;;;;;7.98;71.25;101879.16;5076566;28;20345;-35
2023/04/20 08:27:46;;;;;;;3.38;2.22;;;;;;;8.09;72.42;101859.78;5076134;28;20149;-35
2023/04/20 08:30:12;;;;;;;4.43;2.33;;;;;;;8.09;72.50;101869.72;5076157;28;20033;-35
2023/04/20 08:32:38;;;;;;;3.47;1.60;;;;;;;8.11;71.47;101859.63;5075516;28;20029;-35
2023/04/20 08:35:04;;;;;;;4.65;2.20;;;;;;;8.17;72.57;101848.91;5076564;28;20270;-35
2023/04/20 08:37:29;;;;;;;5.22;2.22;;;;;;;8.55;72.91;101853.28;5076248;28;20032;-35
2023/04/20 08:39:55;;;;;;;3.88;2.20;;;;;;;8.60;71.05;101856.22;5075857;28;20029;-35
2023/04/20 08:42:20;;;;;;;2.60;1.80;;;;;;;8.59;71.45;101846.44;5076228;28;20104;-35
2023/04/20 08:44:46;;;;;;;6.70;2.53;;;;;;;8.63;70.73;101850.44;5075581;28;20051;-35
2023/04/20 08:47:11;;;;;;;3.60;2.08;;;;;;;8.63;70.40;101858.50;5075725;28;20074;-35
2023/04/20 08:49:38;;;;;;;4.03;2.03;;;;;;;8.76;71.38;101847.84;5075793;28;20083;-35
2023/04/20 08:52:04;;;;;;;4.60;2.05;;;;;;;8.75;70.27;101847.03;5075900;28;20029;-35
2023/04/20 08:54:30;;;;;;;;;;;;;;;8.76;70.91;101850.56;5076356;28;20037;-35
2023/04/20 08:56:55;;;;;;;3.60;2.05;;;;;;;8.71;71.74;101847.59;5075175;28;19915;-35
2023/04/20 08:59:21;;;;;;;2.58;1.80;;;;;;;8.81;70.98;101833.78;5075477;28;20028;-34
2023/04/20 09:01:46;;;;;;;2.65;1.73;;;;;;;9.03;69.35;101841.66;5075627;28;20084;-35
2023/04/20 09:04:25;;;;;;;3.87;1.87;;;;;;;9.11;69.75;101840.66;5076065;28;20029;-35
2023/04/20 09:06:54;;;;;;;4.60;2.30;;;;;;;9.13;69.25;101840.47;5075386;28;20349;-35
2023/04/20 09:09:22;;;;;;;3.85;2.10;;;;;;;9.08;69.13;101837.50;5075334;28;20059;-35
2023/04/20 09:12:02;;;;;;;2.63;1.77;;;;;;;9.34;69.09;101826.06;5075649;28;20115;-35
2023/04/20 09:14:27;;;;;;;5.18;2.00;;;;;;;9.52;67.63;101829.09;5075264;28;20032;-35
2023/04/20 09:17:03;;;;;;;3.33;2.03;;;;;;;9.51;67.13;101822.00;5075539;28;20024;-35
2023/04/20 09:19:30;;;;;;;4.83;1.90;;;;;;;9.48;68.56;101835.91;5075206;28;20021;-35
2023/04/20 09:22:02;;;;;;;2.55;1.90;;;;;;;9.15;68.42;101835.69;5075835;28;20025;-35
2023/04/20 09:24:46;;;;;;;3.55;2.10;;;;;;;9.43;68.63;101822.19;5075605;28;20025;-35
2023/04/20 09:27:18;;;;;;;6.40;2.05;;;;;;;9.40;68.94;101828.78;5075550;28;20096;-35
2023/04/20 09:29:55;;;;;;;2.95;1.88;;;;;;;9.54;67.69;101825.13;5074973;28;20027;-35
2023/04/20 09:32:25;;;;;;;5.28;2.10;;;;;;;9.54;68.84;101816.19;5075157;28;20048;-35
2023/04/20 09:34:50;;;;;;;4.45;2.38;;;;;;;9.38;69.09;101827.34;5074476;28;20104;-35
2023/04/20 09:37:16;;;;;;;4.05;2.00;;;;;;;9.32;69.66;101828.97;5074795;28;20103;-35
2023/04/20 09:39:45;;;;;;;;;;;;;;;9.27;69.45;101832.25;5075980;28;20365;-35
2023/04/20 09:42:13;;;;;;;3.05;1.88;;;;;;;9.15;70.64;101838.41;5074363;28;19982;-35
2023/04/20 09:44:39;;;;;;;3.30;1.95;;;;;;;9.03;71.53;101814.66;5073693;28;20028;-35
2023/04/20 09:47:05;;;;;;;;;;;;;;;9.20;70.48;101828.69;5075884;28;20105;-34
2023/04/20 09:49:31;;;;;;;3.60;1.90;;;;;;;9.10;70.28;101821.97;5074516;28;19908;-35
2023/04/20 09:51:59;;;;;;;5.28;2.05;;;;;;;9.06;71.33;101824.22;5075029;28;20025;-35
2023/04/20 09:54:24;;;;;;;3.50;2.28;;;;;;;8.97;71.51;101818.13;5074961;28;20411;-35
2023/04/20 09:56:50;;;;;;;3.83;1.83;;;;;;;8.98;72.40;101819.81;5074109;28;20096;-35
2023/04/20 09:59:18;;;;;;;2.95;1.90;;;;;;;8.77;73.73;101820.69;5073327;28;20389;-35
2023/04/20 10:01:43;;;;;;;2.63;2.00;;;;;;;8.63;72.85;101821.59;5074119;28;20056;-35
2023/04/20 10:04:10;;;;;;;3.72;2.45;;;;;;;8.43;73.71;101807.94;5074286;28;20024;-35
2023/04/20 10:06:36;;;;;;;5.80;2.40;;;;;;;8.40;74.79;101819.13;5074791;28;20025;-35
2023/04/20 10:09:05;;;;;;;3.65;2.08;;;;;;;8.47;74.35;101811.09;5074215;28;20105;-35
2023/04/20 10:11:39;;;;;;;3.22;2.00;;;;;;;8.41;74.19;101811.88;5073729;28;20124;-35
2023/04/20 10:14:24;;;;;;;2.97;2.15;;;;;;;8.44;75.36;101812.34;5074665;28;20024;-35
2023/04/20 10:17:07;;;;;;;3.55;1.88;;;;;;;8.40;74.75;101810.22;5074889;28;20101;-35
2023/04/20 10:19:40;;;;;;;3.90;2.17;;;;;;;8.42;74.70;101816.22;5074311;28;20496;-35
2023/04/20 10:22:11;;;;;;;3.13;2.05;;;;;;;8.46;74.58;101804.03;5073886;28;20030;-35
2023/04/20 10:24:37;;;;;;;3.10;2.15;;;;;;;8.51;74.84;101821.28;5074786;28;20030;-35
2023/04/20 10:27:03;;;;;;;2.83;2.30;;;;;;;8.46;74.26;101802.19;5073947;28;20032;-35
2023/04/20 10:29:30;;;;;;;3.42;2.40;;;;;;;8.40;74.38;101805.66;5074128;28;20485;-35
2023/04/20 10:31:56;;;;;;;3.67;2.40;;;;;;;8.45;74.06;101805.06;5074691;28;20033;-35
2023/04/20 10:34:35;;;;;;;3.30;2.30;;;;;;;8.39;74.88;101801.25;5073822;28;20036;-35
2023/04/20 10:37:11;;;;;;;2.97;2.33;;;;;;;8.50;75.13;101798.06;5073748;28;20043;-35
2023/04/20 10:39:45;;;;;;;3.00;2.40;;;;;;;8.70;74.68;101792.84;5073473;28;20025;-35
2023/04/20 10:42:10;;;;;;;2.50;2.00;;;;;;;9.00;73.63;101792.63;5074215;28;20366;-35
2023/04/20 10:44:46;;;;;;;3.15;2.50;;;;;;;9.14;72.18;101782.78;5073678;28;20056;-35
2023/04/20 10:47:13;;;;;;;2.97;2.20;;;;;;;9.41;73.16;101786.44;5073406;28;20025;-35
2023/04/20 10:49:39;;;;;;;4.97;2.20;;;;;;;9.50;71.22;101777.13;5073567;28;20074;-35
2023/04/20 10:52:05;;;;;;;;;;;;;;;9.32;69.14;101784.94;5074319;28;20032;-35
2023/04/20 10:54:38;;;;;;;3.78;2.42;;;;;;;9.25;70.65;101779.50;5073799;28;19908;-35
2023/04/20 10:57:04;;;;;;;4.43;2.50;;;;;;;9.05;70.40;101779.38;5073969;28;20025;-35
2023/04/20 10:59:29;;;;;;;5.13;2.65;;;;;;;9.15;71.17;101779.84;5073133;28;20024;-35
2023/04/20 11:01:55;;;;;;;3.83;2.47;;;;;;;9.05;70.07;101765.91;5074347;28;20059;-35
2023/04/20 11:04:34;;;;;;;5.47;2.90;;;;;;;9.47;69.85;101767.59;5073959;28;20031;-35
2023/04/20 11:07:07;;;;;;;5.35;2.45;;;;;;;9.79;67.04;101767.88;5074299;28;20024;-35
2023/04/20 11:09:34;;;;;;;3.45;2.40;;;;;;;9.77;67.63;101767.28;5073402;28;20021;-35
2023/04/20 11:12:02;;;;;;;2.53;2.20;;;;;;;9.79;66.74;101766.00;5073457;28;20043;-35
2023/04/20 11:14:29;;;;;;;4.63;2.50;;;;;;;9.88;67.03;101758.56;5073079;28;20086;-35
2023/04/20 11:16:54;;;;;;;2.80;2.33;;;;;;;10.03;66.38;101755.69;5073640;28;20472;-35
2023/04/20 11:19:28;;;;;;;4.47;2.27;;;;;;;10.13;65.57;101733.66;5073593;28;20048;-35
2023/04/20 11:21:54;;;;;;;3.33;2.30;;;;;;;10.28;65.80;101740.56;5072999;28;20281;-35
2023/04/20 11:24:24;;;;;;;2.60;2.38;;;;;;;10.07;65.31;101746.13;5073247;28;20021;-35
2023/04/20 11:26:53;;;;;;;3.45;2.50;;;;;;;10.01;65.41;101736.16;5073549;28;20029;-35
2023/04/20 11:29:27;;;;;;;2.92;2.00;;;;;;;9.82;65.80;101729.66;5073498;28;20016;-35
2023/04/20 11:31:53;;;;;;;3.88;2.55;;;;;;;9.64;67.21;101756.41;5073796;28;20415;-35